Flight Track Log - Related Links

Times and Time Zones

All times are in EST time to prevent confusion due to time zone crossing. See the N365DF flight status page for this flight to view local times or setup timezone preferences in your user account.

Time Position Orientation Groundspeed Altitude Reporting Facility
EST Latitude Longitude Course Direction KTS MPH feet Rate Location/Type
Sun 09:31:20 PM 33.5917 -116.0272 39° Northeast 253 291 7,300  Level Los Angeles Center
Sun 09:32:22 PM 33.6397 -115.9797 39° Northeast 219 252 9,900 1,756 Climbing Los Angeles Center
Sun 09:33:23 PM 33.6775 -115.8931 62° Northeast 271 312 10,900 1,756 Climbing Los Angeles Center
Sun 09:34:25 PM 33.7122 -115.7992 66° East 306 352 13,500 2,516 Climbing Los Angeles Center
Sun 09:35:27 PM 33.7431 -115.6992 70° East 316 364 16,100 2,806 Climbing Los Angeles Center
Sun 09:36:29 PM 33.7858 -115.5717 68° East 336 387 19,300 2,565 Climbing Los Angeles Center
Sun 09:37:31 PM 33.8225 -115.4608 68° East 352 405 21,400 1,951 Climbing Los Angeles Center
Sun 09:38:32 PM 33.8606 -115.3444 68° East 367 422 23,300 1,707 Climbing Los Angeles Center
Sun 09:39:34 PM 33.9014 -115.2214 68° East 388 447 24,900 1,548 Climbing Los Angeles Center
Sun 09:40:36 PM 33.9439 -115.0900 69° East 411 473 26,500 1,659 Climbing Los Angeles Center
Sun 09:41:37 PM 33.9878 -114.9556 68° East 427 491 28,300 1,805 Climbing Los Angeles Center
Sun 09:42:39 PM 34.0331 -114.8192 68° East 437 503 30,200 1,935 Climbing Los Angeles Center
Sun 09:43:41 PM 34.0844 -114.6569 69° East 432 497 32,300 1,548 Climbing Los Angeles Center
Sun 09:44:43 PM 34.1281 -114.5208 69° East 434 499 33,400 976 Climbing Los Angeles Center
Sun 09:45:44 PM 34.1739 -114.3806 68° East 445 512 34,300 835 Climbing Los Angeles Center
Sun 09:46:38 PM 34.2167 -114.2467 69° East 458 527 35,000 362 Climbing Albuquerque Center
Sun 09:47:40 PM 34.2633 -114.0969 69° East 475 547 35,000  Level Albuquerque Center
Sun 09:48:41 PM 34.3133 -113.9406 69° East 490 564 35,000 393 Level Albuquerque Center
Sun 09:49:42 PM 34.3628 -113.7822 69° East 501 577 35,800 934 Climbing Albuquerque Center
Sun 09:50:43 PM 34.4153 -113.6111 70° East 496 571 36,900 1,033 Climbing Albuquerque Center
Sun 09:51:44 PM 34.4631 -113.4606 69° East 485 558 37,900 829 Climbing Albuquerque Center
Sun 09:52:46 PM 34.5094 -113.3111 69° East 481 554 38,600 683 Climbing Albuquerque Center
Sun 09:53:47 PM 34.5544 -113.1578 70° East 484 557 39,300 590 Climbing Albuquerque Center
Sun 09:54:48 PM 34.6011 -113.0086 69° East 480 552 39,800 443 Climbing Albuquerque Center
Sun 09:55:49 PM 34.6475 -112.8578 69° East 482 555 40,200 439 Climbing Albuquerque Center
Sun 09:56:51 PM 34.6922 -112.7081 70° East 479 551 40,700 390 Climbing Albuquerque Center
Sun 09:57:52 PM 34.7469 -112.5256 70° East 482 555 41,000 148 Climbing Albuquerque Center
Sun 09:58:53 PM 34.7928 -112.3717 70° East 486 559 41,000  Level Albuquerque Center
Sun 09:59:54 PM 34.8392 -112.2139 70° East 495 570 41,000  Level Albuquerque Center
Sun 10:00:55 PM 34.8864 -112.0550 70° East 500 575 41,000  Level Albuquerque Center
Sun 10:01:57 PM 34.9347 -111.8917 70° East 511 588 41,000  Level Albuquerque Center
Sun 10:02:58 PM 34.9833 -111.7278 70° East 515 593 41,000  Level Albuquerque Center
Sun 10:03:59 PM 35.0300 -111.5633 71° East 516 594 41,000  Level Albuquerque Center
Sun 10:05:00 PM 35.0783 -111.3958 71° East 519 597 41,000  Level Albuquerque Center
Sun 10:06:02 PM 35.1353 -111.1964 71° East 519 597 41,000  Level Albuquerque Center
Sun 10:07:03 PM 35.1825 -111.0383 70° East 519 597 41,000  Level Albuquerque Center
Sun 10:08:04 PM 35.2342 -110.8522 71° East 518 596 41,000  Level Albuquerque Center
Sun 10:09:05 PM 35.2797 -110.6936 71° East 517 595 41,000  Level Albuquerque Center
Sun 10:10:06 PM 35.3231 -110.5317 72° East 519 597 41,000  Level Albuquerque Center
Sun 10:11:08 PM 35.3761 -110.3467 71° East 519 597 41,000  Level Albuquerque Center
Sun 10:12:09 PM 35.4197 -110.1867 71° East 518 596 41,000  Level Albuquerque Center
Sun 10:13:10 PM 35.4650 -110.0258 71° East 520 598 41,000  Level Albuquerque Center
Sun 10:14:11 PM 35.5164 -109.8383 71° East 521 600 41,000  Level Albuquerque Center
Sun 10:15:12 PM 35.5600 -109.6772 72° East 521 600 41,000  Level Albuquerque Center
Sun 10:16:14 PM 35.6111 -109.4881 72° East 523 602 41,000  Level Albuquerque Center
Sun 10:17:15 PM 35.6547 -109.3253 72° East 524 603 41,000  Level Albuquerque Center
Sun 10:18:16 PM 35.6978 -109.1625 72° East 525 604 41,000  Level Albuquerque Center
Sun 10:19:17 PM 35.7469 -108.9739 72° East 524 603 41,000  Level Albuquerque Center
Sun 10:20:18 PM 35.7900 -108.8119 72° East 525 604 41,000  Level Albuquerque Center
Sun 10:21:20 PM 35.8397 -108.6219 72° East 527 606 41,000  Level Albuquerque Center
Sun 10:22:21 PM 35.8819 -108.4586 72° East 528 608 41,000  Level Albuquerque Center
Sun 10:23:22 PM 35.9311 -108.2661 72° East 530 610 41,000  Level Albuquerque Center
Sun 10:24:23 PM 35.9731 -108.1003 73° East 530 610 41,000  Level Albuquerque Center
Sun 10:25:24 PM 36.0142 -107.9350 73° East 528 608 41,000  Level Albuquerque Center
Sun 10:26:25 PM 36.0631 -107.7408 73° East 530 610 41,000  Level Albuquerque Center
Sun 10:27:27 PM 36.1053 -107.5742 73° East 531 611 41,000  Level Albuquerque Center
Sun 10:28:28 PM 36.1525 -107.3794 73° East 530 610 41,000  Level Albuquerque Center
Sun 10:29:29 PM 36.1958 -107.2103 72° East 536 617 41,000  Level Albuquerque Center
Sun 10:30:30 PM 36.2358 -107.0428 73° East 532 612 41,000  Level Albuquerque Center
Sun 10:31:31 PM 36.2847 -106.8458 73° East 535 616 41,000  Level Albuquerque Center
Sun 10:32:33 PM 36.3256 -106.6778 73° East 534 615 41,000  Level Albuquerque Center
Sun 10:32:57 PM 36.3461 -106.5931 73° East 535 616 41,000  Level Albuquerque Center
Sun 10:33:58 PM 36.3836 -106.4358 73° East 538 619 41,000  Level Albuquerque Center
Sun 10:34:59 PM 36.4267 -106.2567 73° East 539 620 41,000  Level Albuquerque Center
Sun 10:36:00 PM 36.4686 -106.0792 74° East 536 617 41,000  Level Albuquerque Center
Sun 10:37:02 PM 36.5119 -105.8986 73° East 540 621 41,000  Level Albuquerque Center
Sun 10:38:03 PM 36.5531 -105.7150 74° East 547 629 41,000  Level Albuquerque Center
Sun 10:39:04 PM 36.6036 -105.4964 74° East 541 623 41,000  Level Albuquerque Center
Sun 10:40:05 PM 36.6444 -105.3181 74° East 534 615 41,000 49 Level Albuquerque Center
Sun 10:41:06 PM 36.6853 -105.1358 74° East 537 618 41,100  Climbing Albuquerque Center
Sun 10:42:07 PM 36.7253 -104.9600 74° East 541 623 41,000 -49 Descending Albuquerque Center
Sun 10:43:08 PM 36.7669 -104.7719 74° East 539 620 41,000  Level Albuquerque Center
Sun 10:44:09 PM 36.8069 -104.5883 75° East 540 621 41,000  Level Albuquerque Center
Sun 10:45:10 PM 36.8458 -104.4153 74° East 540 621 41,000  Level Albuquerque Center
Sun 10:46:12 PM 36.8839 -104.2433 74° East 539 620 41,000  Level Albuquerque Center
Sun 10:47:13 PM 36.9269 -104.0414 75° East 541 623 41,000  Level Albuquerque Center
Sun 10:48:14 PM 36.9642 -103.8675 75° East 543 625 41,000  Level Albuquerque Center
Sun 10:49:15 PM 37.0078 -103.6644 75° East 544 626 41,000  Level Albuquerque Center
Sun 10:50:16 PM 37.0439 -103.4886 76° East 546 628 41,000  Level Albuquerque Center
Sun 10:51:17 PM 37.0806 -103.3147 75° East 545 627 41,000  Level Albuquerque Center
Sun 10:52:18 PM 37.1233 -103.1117 75° East 543 625 41,000  Level Albuquerque Center
Sun 10:53:19 PM 37.1586 -102.9350 76° East 546 628 41,000  Level Albuquerque Center
Sun 10:54:20 PM 37.1992 -102.7292 76° East 546 628 41,000  Level Albuquerque Center
Sun 10:55:21 PM 37.2350 -102.5531 76° East 546 628 41,000  Level Albuquerque Center
Sun 10:56:22 PM 37.2703 -102.3742 76° East 549 632 41,000  Level Albuquerque Center
Sun 10:57:14 PM 37.3003 -102.2231 76° East 547 629 41,000  Level Kansas City Center
Sun 10:58:13 PM 37.3411 -102.0136 76° East 548 631 41,000  Level Kansas City Center
Sun 10:59:14 PM 37.3769 -101.8367 76° East 548 631 41,000  Level Kansas City Center
Sun 11:00:16 PM 37.4169 -101.6275 76° East 549 632 41,000  Level Kansas City Center
Sun 11:01:15 PM 37.4508 -101.4483 77° East 549 632 41,000  Level Kansas City Center
Sun 11:02:16 PM 37.4847 -101.2683 77° East 550 633 41,000  Level Kansas City Center
Sun 11:03:17 PM 37.5203 -101.0803 77° East 550 633 41,000  Level Kansas City Center
Sun 11:04:18 PM 37.5553 -100.8914 77° East 551 634 41,000  Level Kansas City Center
Sun 11:05:19 PM 37.5908 -100.7014 77° East 552 635 41,000  Level Kansas City Center
Sun 11:06:20 PM 37.6253 -100.5133 77° East 552 635 41,000  Level Kansas City Center
Sun 11:07:21 PM 37.6606 -100.3183 77° East 552 635 41,000  Level Kansas City Center
Sun 11:08:22 PM 37.6986 -100.1061 77° East 554 638 41,000  Level Kansas City Center
Sun 11:09:24 PM 37.7319 -99.9233 77° East 556 640 41,000  Level Kansas City Center
Sun 11:10:24 PM 37.7642 -99.7394 77° East 558 642 41,000  Level Kansas City Center
Sun 11:11:26 PM 37.8011 -99.5272 78° East 557 641 41,000  Level Kansas City Center
Sun 11:12:27 PM 37.8303 -99.3528 78° East 558 642 41,000  Level Kansas City Center
Sun 11:13:25 PM 37.8625 -99.1611 78° East 558 642 41,000  Level Kansas City Center
Sun 11:14:27 PM 37.8950 -98.9686 78° East 559 643 41,000  Level Kansas City Center
Sun 11:15:29 PM 37.9264 -98.7756 78° East 559 643 41,000  Level Kansas City Center
Sun 11:16:27 PM 37.9581 -98.5825 78° East 560 644 41,000  Level Kansas City Center
Sun 11:17:28 PM 37.9903 -98.3881 78° East 563 648 41,000  Level Kansas City Center
Sun 11:18:32 PM 38.0219 -98.1942 78° East 563 648 41,000  Level Kansas City Center
Sun 11:19:30 PM 38.0561 -97.9647 79° East 563 648 41,000  Level Kansas City Center
Sun 11:20:31 PM 38.0836 -97.7961 78° East 560 644 41,000  Level Kansas City Center
Sun 11:21:31 PM 38.1150 -97.6017 78° East 560 644 41,000  Level Kansas City Center
Sun 11:22:35 PM 38.1450 -97.4033 79° East 561 646 41,000  Level Kansas City Center
Sun 11:23:32 PM 38.1742 -97.2075 79° East 562 647 41,000  Level Kansas City Center
Sun 11:24:35 PM 38.2036 -97.0133 79° East 562 647 41,000  Level Kansas City Center
Sun 11:25:34 PM 38.2381 -96.7822 79° East 562 647 41,000  Level Kansas City Center
Sun 11:26:38 PM 38.2672 -96.5825 79° East 563 648 41,000  Level Kansas City Center
Sun 11:27:38 PM 38.2964 -96.3839 79° East 562 647 41,000  Level Kansas City Center
Sun 11:28:37 PM 38.3233 -96.1967 80° East 562 647 41,000  Level Kansas City Center
Sun 11:29:38 PM 38.3494 -96.0106 80° East 561 646 41,000  Level Kansas City Center
Sun 11:30:40 PM 38.3797 -95.7942 80° East 560 644 41,000  Level Kansas City Center
Sun 11:31:40 PM 38.4050 -95.6078 80° East 560 644 41,000  Level Kansas City Center
Sun 11:32:41 PM 38.4297 -95.4231 80° East 559 643 41,000  Level Kansas City Center
Sun 11:33:42 PM 38.4600 -95.2072 80° East 559 643 41,000  Level Kansas City Center
Sun 11:34:42 PM 38.4844 -95.0222 80° East 556 640 41,000  Level Kansas City Center
Sun 11:35:41 PM 38.5089 -94.8364 80° East 556 640 41,000  Level Kansas City Center
Sun 11:36:44 PM 38.5367 -94.6197 81° East 557 641 41,000 -496 Level Kansas City Center
Sun 11:37:42 PM 38.5603 -94.4317 81° East 557 641 40,000 -1,160 Descending Kansas City Center
Sun 11:38:43 PM 38.5847 -94.2411 81° East 566 651 38,700 -1,317 Descending Kansas City Center
Sun 11:39:45 PM 38.6072 -94.0508 81° East 566 651 37,300 -1,548 Descending Kansas City Center
Sun 11:40:47 PM 38.6342 -93.8294 81° East 566 651 35,500 -1,770 Descending Kansas City Center
Sun 11:41:47 PM 38.6572 -93.6469 81° East 566 651 33,700 -2,034 Descending Kansas City Center
Sun 11:42:45 PM 38.6800 -93.4544 81° East 552 635 31,500 -2,622 Descending Kansas City Center
Sun 11:43:46 PM 38.7025 -93.2642 81° East 544 626 28,500 -3,194 Descending Kansas City Center
Sun 11:44:49 PM 38.7244 -93.0769 81° East 534 615 24,900 -3,967 Descending Kansas City Center
Sun 11:45:47 PM 38.7461 -92.8806 82° East 525 604 20,500 -4,235 Descending Kansas City Center
Sun 11:46:48 PM 38.7592 -92.7175 84° East 507 583 16,500 -4,945 Descending Kansas City Center
Sun 11:47:18 PM 38.7597 -92.6283 90° East 455 524 13,000 -5,600 Descending Kansas City Center
Sun 11:47:48 PM 38.7567 -92.5608 93° East 458 527 10,900 -4,645 Descending Kansas City Center
Sun 11:48:51 PM 38.7461 -92.4228 96° East 414 476 5,800 -3,756 Descending Kansas City Center
Sun 11:49:51 PM 38.7353 -92.3256 98° East 330 380 3,200 -1,664 Descending Kansas City Center
Sun 11:50:50 PM 38.7403 -92.2650 84° East 237 273 2,500 -712 Descending Kansas City Center

Login

Don't have an account? Register now (free) for customized features, flight alerts, and more!